Time;durP1;ratioP1;P1;durP2;ratioP2;P2;SDS_P1;SDS_P2;PMS_P1;PMS_P2;Temp;Humidity;BMP_temperature;BMP_pressure;BME280_temperature;BME280_humidity;BME280_pressure;Samples;Min_cycle;Max_cycle;Signal;HPM_P1;HPM_P2
2021/11/20 00:01:54;;;;;;;13.73;12.05;;;11.60;99.90;;;;;;5023343;28;20053;-53
2021/11/20 00:04:22;;;;;;;14.27;12.75;;;11.60;99.90;;;;;;5023843;28;20053;-51
2021/11/20 00:06:52;;;;;;;13.82;12.35;;;11.50;99.90;;;;;;5024171;28;20081;-53
2021/11/20 00:09:20;;;;;;;14.95;11.98;;;11.50;99.90;;;;;;5023210;28;20555;-53
2021/11/20 00:11:48;;;;;;;15.00;13.18;;;11.50;99.90;;;;;;5002209;28;20100;-55
2021/11/20 00:14:15;;;;;;;14.20;11.95;;;11.50;99.90;;;;;;5021686;28;20090;-52
2021/11/20 00:16:43;;;;;;;13.93;12.32;;;11.50;99.90;;;;;;5021994;28;20061;-55
2021/11/20 00:19:10;;;;;;;14.25;12.75;;;11.50;99.90;;;;;;5022560;28;20049;-54
2021/11/20 00:21:43;;;;;;;16.60;13.15;;;11.50;99.90;;;;;;5022227;28;20263;-53
2021/11/20 00:24:18;;;;;;;;;;;11.50;99.90;;;;;;5022954;28;20080;-56
2021/11/20 00:26:45;;;;;;;12.38;10.65;;;11.50;99.90;;;;;;5020840;28;20292;-49
2021/11/20 00:31:56;;;;;;;13.10;11.70;;;11.50;99.90;;;;;;5019438;28;20088;-52
2021/11/20 00:34:26;;;;;;;12.52;11.05;;;11.50;99.90;;;;;;5021390;28;20041;-52
2021/11/20 00:36:53;;;;;;;12.73;11.38;;;11.50;99.90;;;;;;5020601;28;20068;-53
2021/11/20 00:39:21;;;;;;;12.68;11.30;;;11.50;99.90;;;;;;5018801;28;20469;-55
2021/11/20 00:41:48;;;;;;;13.55;12.15;;;11.50;99.90;;;;;;5021181;28;20198;-55
2021/11/20 00:44:16;;;;;;;13.13;11.82;;;11.50;99.90;;;;;;5020067;28;20092;-55
2021/11/20 00:46:42;;;;;;;12.05;10.65;;;11.40;99.90;;;;;;5019504;28;20497;-54
2021/11/20 00:49:09;;;;;;;13.52;12.13;;;11.40;99.90;;;;;;5019273;28;20073;-54
2021/11/20 00:51:36;;;;;;;11.93;10.63;;;11.40;99.90;;;;;;5020207;28;20080;-54
2021/11/20 00:54:04;;;;;;;13.23;11.88;;;11.40;99.90;;;;;;5020024;28;20440;-54
2021/11/20 00:56:31;;;;;;;11.88;10.45;;;11.30;99.90;;;;;;5021236;28;20176;-54
2021/11/20 00:58:58;;;;;;;13.07;11.77;;;11.30;99.90;;;;;;5018368;28;20076;-54
2021/11/20 01:01:49;;;;;;;12.27;10.30;;;11.30;99.90;;;;;;5018417;28;20088;-55
2021/11/20 01:04:16;;;;;;;11.10;9.88;;;11.30;99.90;;;;;;5020579;28;20073;-52
2021/11/20 01:06:43;;;;;;;13.90;12.38;;;11.30;99.90;;;;;;5021364;28;20145;-53
2021/11/20 01:09:14;;;;;;;14.02;12.45;;;11.20;99.90;;;;;;5024382;28;20038;-54
2021/11/20 01:11:51;;;;;;;12.65;11.35;;;11.20;99.90;;;;;;5023533;28;20136;-53
2021/11/20 01:14:18;;;;;;;15.73;14.15;;;11.10;99.90;;;;;;5021972;28;20132;-52
2021/11/20 01:16:46;;;;;;;15.70;14.18;;;11.10;99.90;;;;;;5025020;28;20081;-56
2021/11/20 01:19:13;;;;;;;14.45;12.57;;;11.00;99.90;;;;;;5019934;28;20075;-54
2021/11/20 01:21:39;;;;;;;12.52;11.25;;;11.00;99.90;;;;;;4987121;28;20046;-55
2021/11/20 01:24:07;;;;;;;12.07;10.85;;;11.10;99.90;;;;;;4983405;28;20538;-51
2021/11/20 01:26:34;;;;;;;11.82;10.65;;;11.10;99.90;;;;;;4984985;28;20139;-54
2021/11/20 01:29:01;;;;;;;12.60;11.30;;;11.10;99.90;;;;;;4985088;28;20077;-54
2021/11/20 01:31:29;;;;;;;12.98;11.68;;;11.10;99.90;;;;;;4984591;28;20112;-56
2021/11/20 01:33:55;;;;;;;14.32;12.85;;;11.10;99.90;;;;;;4985427;28;20062;-54
2021/11/20 01:36:25;;;;;;;14.25;12.82;;;11.10;99.90;;;;;;4983790;28;20054;-53
2021/11/20 01:38:52;;;;;;;15.77;14.27;;;11.00;99.90;;;;;;4985341;28;20078;-56
2021/11/20 01:41:20;;;;;;;15.27;13.45;;;11.00;99.90;;;;;;4984991;28;20435;-55
2021/11/20 01:43:51;;;;;;;12.35;11.15;;;11.00;99.90;;;;;;4984876;28;20070;-54
2021/11/20 01:46:23;;;;;;;13.13;11.68;;;10.90;99.90;;;;;;4978410;28;20502;-55
2021/11/20 01:49:02;;;;;;;12.65;11.38;;;11.00;99.90;;;;;;4983882;28;20061;-53
2021/11/20 01:51:41;;;;;;;13.82;12.52;;;11.00;99.90;;;;;;4984677;28;20249;-53
2021/11/20 01:54:29;;;;;;;13.88;12.48;;;10.90;99.90;;;;;;4983115;28;20129;-54
2021/11/20 01:57:03;;;;;;;14.45;12.77;;;11.00;99.90;;;;;;4966806;28;20177;-55
2021/11/20 01:59:45;;;;;;;15.35;13.70;;;11.00;99.90;;;;;;4982156;28;20161;-54
2021/11/20 02:02:47;;;;;;;14.57;13.10;;;10.90;99.90;;;;;;4984677;28;20082;-55
2021/11/20 02:05:23;;;;;;;16.58;14.88;;;10.90;99.90;;;;;;4982633;28;20204;-55
2021/11/20 02:08:04;;;;;;;18.55;16.65;;;10.80;99.90;;;;;;4983607;28;20143;-54
2021/11/20 02:10:41;;;;;;;15.50;14.00;;;10.80;99.90;;;;;;4983291;28;20121;-53
2021/11/20 02:13:14;;;;;;;15.05;13.45;;;10.80;99.90;;;;;;4983590;28;20357;-54
2021/11/20 02:15:52;;;;;;;15.30;13.70;;;10.80;99.90;;;;;;4983467;28;20078;-56
2021/11/20 02:18:21;;;;;;;16.00;14.10;;;10.70;99.90;;;;;;4966353;28;20137;-54
2021/11/20 02:20:52;;;;;;;15.77;14.18;;;10.80;99.90;;;;;;5005695;28;20092;-53
2021/11/20 02:23:19;;;;;;;13.90;12.50;;;10.80;99.90;;;;;;5023226;28;20488;-52
2021/11/20 02:25:48;;;;;;;13.75;12.35;;;10.80;99.90;;;;;;5023849;28;20136;-53
2021/11/20 02:28:15;;;;;;;12.70;11.50;;;10.80;99.90;;;;;;5004738;28;20050;-52
2021/11/20 02:30:44;;;;;;;13.43;12.07;;;10.80;99.90;;;;;;5017508;28;20073;-53
2021/11/20 02:33:25;;;;;;;13.55;12.18;;;10.70;99.90;;;;;;5025193;28;20268;-54
2021/11/20 02:36:00;;;;;;;11.73;10.52;;;10.80;99.90;;;;;;5026439;28;20144;-54
2021/11/20 02:38:31;;;;;;;14.15;12.75;;;10.70;99.90;;;;;;5027063;28;20462;-53
2021/11/20 02:40:58;;;;;;;15.68;14.15;;;10.70;99.90;;;;;;5026698;28;20069;-55
2021/11/20 02:43:25;;;;;;;14.30;12.90;;;10.70;99.90;;;;;;5024944;28;20137;-53
2021/11/20 02:45:54;;;;;;;14.48;12.98;;;10.60;99.90;;;;;;5023324;28;20049;-55
2021/11/20 02:48:21;;;;;;;15.57;13.98;;;10.60;99.90;;;;;;5024729;28;20053;-51
2021/11/20 02:51:03;;;;;;;16.23;14.60;;;10.60;99.90;;;;;;5023482;28;20136;-55
2021/11/20 02:53:32;;;;;;;16.30;14.70;;;10.60;99.90;;;;;;5024313;28;20105;-55
2021/11/20 02:55:58;;;;;;;15.07;13.52;;;10.60;99.90;;;;;;5025415;28;20326;-54
2021/11/20 02:58:27;;;;;;;17.35;15.57;;;10.60;99.90;;;;;;5024061;28;20080;-54
2021/11/20 03:01:02;;;;;;;16.52;14.82;;;10.60;99.90;;;;;;5022357;28;20111;-55
2021/11/20 03:03:29;;;;;;;17.02;15.40;;;10.60;99.90;;;;;;5024817;28;20420;-54
2021/11/20 03:05:56;;;;;;;16.10;14.60;;;10.50;99.90;;;;;;5024765;28;20140;-54
2021/11/20 03:08:23;;;;;;;15.90;14.23;;;10.50;99.90;;;;;;5024872;28;20146;-53
2021/11/20 03:10:49;;;;;;;15.75;14.18;;;10.50;99.90;;;;;;5024360;28;20057;-54
2021/11/20 03:13:16;;;;;;;14.80;13.30;;;10.60;99.90;;;;;;5024556;28;20135;-54
2021/11/20 03:15:43;;;;;;;16.77;15.07;;;10.60;99.90;;;;;;5023940;28;20080;-55
2021/11/20 03:18:10;;;;;;;14.68;13.25;;;10.60;99.90;;;;;;5024655;28;20358;-54
2021/11/20 03:20:37;;;;;;;14.38;12.88;;;10.60;99.90;;;;;;5023418;28;20093;-55
2021/11/20 03:23:20;;;;;;;14.48;12.98;;;10.60;99.90;;;;;;5025378;28;20136;-55
2021/11/20 03:25:47;;;;;;;12.45;11.15;;;10.60;99.90;;;;;;5024847;28;20050;-54
2021/11/20 03:28:14;;;;;;;12.18;10.95;;;10.60;99.90;;;;;;5023872;28;20072;-55
2021/11/20 03:30:41;;;;;;;13.25;11.95;;;10.50;99.90;;;;;;5023678;28;20447;-55
2021/11/20 03:33:07;;;;;;;13.93;12.60;;;10.50;99.90;;;;;;5023805;28;20085;-55
2021/11/20 03:35:34;;;;;;;13.32;11.98;;;10.50;99.90;;;;;;5025307;28;20077;-55
2021/11/20 03:38:01;;;;;;;14.23;12.82;;;10.50;99.90;;;;;;5027036;28;20136;-55
2021/11/20 03:40:28;;;;;;;13.75;12.23;;;10.50;99.90;;;;;;5028373;28;20480;-54
2021/11/20 03:42:55;;;;;;;14.65;13.32;;;10.50;99.90;;;;;;5027997;28;20205;-54
2021/11/20 03:45:23;;;;;;;14.00;12.70;;;10.40;99.90;;;;;;5027172;28;20103;-56
2021/11/20 03:47:50;;;;;;;14.15;12.85;;;10.50;99.90;;;;;;5028619;28;20127;-55
2021/11/20 03:50:16;;;;;;;12.73;11.48;;;10.40;99.90;;;;;;5028252;28;20132;-55
2021/11/20 03:52:44;;;;;;;12.48;11.27;;;10.50;99.90;;;;;;5028497;28;20088;-53
2021/11/20 03:55:13;;;;;;;12.00;10.65;;;10.50;99.90;;;;;;5028801;28;20041;-51
2021/11/20 03:57:40;;;;;;;11.43;10.32;;;10.50;99.90;;;;;;5027600;28;20087;-55
2021/11/20 04:00:08;;;;;;;11.43;10.32;;;10.50;99.90;;;;;;5026986;28;20135;-54
2021/11/20 04:02:35;;;;;;;12.23;11.05;;;10.50;99.90;;;;;;5024449;28;20105;-54
2021/11/20 04:05:02;;;;;;;12.32;11.15;;;10.50;99.90;;;;;;5027885;28;20073;-50
2021/11/20 04:07:29;;;;;;;11.85;10.70;;;10.50;99.90;;;;;;5026506;28;20136;-53
2021/11/20 04:09:56;;;;;;;11.95;10.82;;;10.50;99.90;;;;;;5028223;28;20041;-55
2021/11/20 04:12:22;;;;;;;11.60;10.50;;;10.50;99.90;;;;;;5027811;28;20479;-55
2021/11/20 04:14:49;;;;;;;12.13;11.02;;;10.60;99.90;;;;;;5025295;28;20089;-55
2021/11/20 04:17:16;;;;;;;11.43;10.32;;;10.50;99.90;;;;;;5028023;28;20137;-55
2021/11/20 04:19:43;;;;;;;12.43;11.30;;;10.60;99.90;;;;;;5028227;28;20490;-55
2021/11/20 04:22:10;;;;;;;13.15;11.30;;;10.60;99.90;;;;;;5027972;28;20491;-55
2021/11/20 04:24:36;;;;;;;12.07;10.88;;;10.50;99.90;;;;;;5027197;28;20160;-54
2021/11/20 04:27:04;;;;;;;12.05;10.82;;;10.50;99.90;;;;;;5027094;28;20085;-55
2021/11/20 04:29:30;;;;;;;11.02;9.95;;;10.50;99.90;;;;;;5026467;28;20144;-53
2021/11/20 04:31:57;;;;;;;12.60;11.40;;;10.50;99.90;;;;;;5028470;28;20076;-53
2021/11/20 04:34:25;;;;;;;13.25;11.95;;;10.50;99.90;;;;;;5027687;28;20201;-52
2021/11/20 04:36:52;;;;;;;11.05;10.05;;;10.50;99.90;;;;;;5027221;28;20053;-55
2021/11/20 04:39:18;;;;;;;11.93;10.80;;;10.50;99.90;;;;;;5026866;28;20049;-55
2021/11/20 04:41:45;;;;;;;11.00;10.00;;;10.50;99.90;;;;;;5025177;28;20111;-53
2021/11/20 04:44:12;;;;;;;10.20;9.30;;;10.50;99.90;;;;;;5025576;28;20473;-53
2021/11/20 04:46:39;;;;;;;9.43;8.52;;;10.50;99.90;;;;;;5026793;28;20148;-51
2021/11/20 04:49:06;;;;;;;9.18;8.27;;;10.50;99.90;;;;;;5025118;28;20053;-53
2021/11/20 04:51:32;;;;;;;8.90;8.10;;;10.50;99.90;;;;;;5027455;28;20074;-52
2021/11/20 04:53:59;;;;;;;9.57;8.68;;;10.50;99.90;;;;;;5027365;28;20172;-55
2021/11/20 04:56:27;;;;;;;9.57;8.68;;;10.50;99.90;;;;;;5026526;28;20085;-55
2021/11/20 04:58:54;;;;;;;9.40;8.50;;;10.50;99.90;;;;;;5027106;28;20100;-51
2021/11/20 05:01:21;;;;;;;8.73;7.93;;;10.50;99.90;;;;;;5024445;28;20076;-49
2021/11/20 05:03:49;;;;;;;9.00;8.20;;;10.50;99.90;;;;;;5027465;28;20477;-49
2021/11/20 05:06:17;;;;;;;9.80;8.80;;;10.50;99.90;;;;;;5026653;28;20544;-54
2021/11/20 05:08:44;;;;;;;9.07;8.18;;;10.50;99.90;;;;;;5026656;28;20442;-53
2021/11/20 05:11:11;;;;;;;8.23;7.47;;;10.50;99.90;;;;;;5026030;28;20107;-52
2021/11/20 05:13:38;;;;;;;7.85;7.15;;;10.60;99.90;;;;;;5026452;28;20041;-51
2021/11/20 05:16:05;;;;;;;7.47;6.15;;;10.70;99.90;;;;;;5025718;28;20057;-51
2021/11/20 05:18:32;;;;;;;6.65;6.05;;;10.60;99.90;;;;;;5026763;28;20045;-54
2021/11/20 05:21:00;;;;;;;6.82;6.22;;;10.60;99.90;;;;;;5024852;28;20542;-52
2021/11/20 05:23:31;;;;;;;6.50;5.90;;;10.70;99.90;;;;;;5027064;28;20046;-52
2021/11/20 05:25:58;;;;;;;6.45;5.82;;;10.60;99.90;;;;;;5026978;28;20137;-51
2021/11/20 05:28:24;;;;;;;6.72;6.03;;;10.60;99.90;;;;;;5026095;28;20158;-51
2021/11/20 05:30:52;;;;;;;6.53;5.93;;;10.70;99.90;;;;;;5026066;28;20080;-51
2021/11/20 05:33:27;;;;;;;6.50;5.90;;;10.70;99.90;;;;;;5026557;28;20072;-55
2021/11/20 05:35:54;;;;;;;6.60;6.00;;;10.70;99.90;;;;;;5028175;28;20088;-53
2021/11/20 05:38:20;;;;;;;6.75;6.15;;;10.70;99.90;;;;;;5027591;28;20141;-52
2021/11/20 05:40:47;;;;;;;6.15;5.55;;;10.70;99.90;;;;;;5027168;28;20555;-54
2021/11/20 05:43:16;;;;;;;6.18;5.57;;;10.60;99.90;;;;;;5027834;28;20378;-53
2021/11/20 05:45:47;;;;;;;6.10;5.50;;;10.70;99.90;;;;;;5026219;28;20079;-50
2021/11/20 05:48:14;;;;;;;6.47;5.88;;;10.70;99.90;;;;;;5021504;28;20733;-53
2021/11/20 05:50:40;;;;;;;5.13;4.63;;;10.70;99.90;;;;;;5023182;28;20053;-52
2021/11/20 05:53:15;;;;;;;5.55;5.05;;;10.70;99.90;;;;;;5024129;28;20115;-51
2021/11/20 05:55:42;;;;;;;5.32;4.82;;;10.70;99.90;;;;;;5024387;28;20092;-54
2021/11/20 05:58:09;;;;;;;5.78;5.20;;;10.70;99.90;;;;;;5022224;28;20412;-53
2021/11/20 06:00:38;;;;;;;5.53;5.00;;;10.70;99.90;;;;;;5022707;28;20053;-50
2021/11/20 06:03:05;;;;;;;5.80;5.30;;;10.70;99.90;;;;;;5016439;28;20058;-55
2021/11/20 06:05:32;;;;;;;5.03;4.63;;;10.70;99.90;;;;;;5003660;28;20104;-54
2021/11/20 06:07:59;;;;;;;5.10;4.60;;;10.70;99.90;;;;;;5021905;28;20136;-53
2021/11/20 06:10:26;;;;;;;5.15;4.65;;;10.70;99.90;;;;;;5022245;28;20440;-53
2021/11/20 06:12:53;;;;;;;5.60;5.03;;;10.70;99.90;;;;;;5020493;28;20291;-55
2021/11/20 06:15:20;;;;;;;4.70;4.20;;;10.70;99.90;;;;;;5020255;28;20447;-54
2021/11/20 06:17:47;;;;;;;4.13;3.72;;;10.70;99.90;;;;;;5021357;28;20148;-55
2021/11/20 06:20:13;;;;;;;3.78;3.47;;;10.70;99.90;;;;;;5021708;28;20057;-52
2021/11/20 06:22:40;;;;;;;3.90;3.50;;;10.70;99.90;;;;;;5021887;28;20077;-52
2021/11/20 06:25:07;;;;;;;3.85;3.55;;;10.70;99.90;;;;;;5021958;28;20386;-52
2021/11/20 06:27:34;;;;;;;3.60;3.30;;;10.70;99.90;;;;;;5021152;28;20077;-53
2021/11/20 06:30:02;;;;;;;3.70;3.30;;;10.80;99.90;;;;;;5021034;28;20420;-54
2021/11/20 06:32:29;;;;;;;4.05;3.65;;;10.70;99.90;;;;;;5021150;28;20076;-53
2021/11/20 06:34:56;;;;;;;3.08;2.78;;;10.70;99.90;;;;;;5019506;28;20092;-53
2021/11/20 06:37:22;;;;;;;3.35;3.05;;;10.70;99.90;;;;;;5021461;28;20088;-54
2021/11/20 06:39:49;;;;;;;3.83;3.15;;;10.70;99.90;;;;;;5021356;28;20057;-53
2021/11/20 06:42:16;;;;;;;3.90;3.50;;;10.80;99.90;;;;;;5021039;28;20132;-55
2021/11/20 06:44:43;;;;;;;3.38;3.08;;;10.80;99.90;;;;;;5019768;28;20060;-55
2021/11/20 06:47:09;;;;;;;3.70;3.40;;;10.70;99.90;;;;;;5022048;28;20057;-55
2021/11/20 06:49:36;;;;;;;3.33;3.00;;;10.70;99.90;;;;;;5021916;28;20408;-53
2021/11/20 06:52:03;;;;;;;4.00;3.03;;;10.80;99.90;;;;;;5018762;28;20583;-55
2021/11/20 06:54:30;;;;;;;3.47;3.17;;;10.80;99.90;;;;;;5018320;28;20480;-56
2021/11/20 06:57:09;;;;;;;3.30;3.00;;;10.80;99.90;;;;;;5017237;28;20850;-50
2021/11/20 07:02:34;;;;;;;3.10;2.80;;;10.80;99.90;;;;;;5007785;28;20061;-55
2021/11/20 07:05:01;;;;;;;3.20;2.90;;;10.80;99.90;;;;;;5018340;28;20053;-54
2021/11/20 07:07:28;;;;;;;3.10;2.72;;;10.90;99.90;;;;;;5016940;28;20468;-52
2021/11/20 07:09:55;;;;;;;3.72;3.38;;;10.80;99.90;;;;;;5017781;28;20053;-51
2021/11/20 07:12:22;;;;;;;3.25;2.88;;;10.90;99.90;;;;;;5021649;28;20473;-49
2021/11/20 07:14:49;;;;;;;3.30;2.70;;;10.80;99.90;;;;;;5021079;28;20248;-52
2021/11/20 07:17:16;;;;;;;2.83;2.50;;;10.80;99.90;;;;;;5020856;28;20138;-54
2021/11/20 07:19:43;;;;;;;3.10;2.72;;;10.80;99.90;;;;;;5020765;28;20457;-54
2021/11/20 07:22:09;;;;;;;3.40;3.08;;;10.90;99.90;;;;;;5022208;28;20136;-51
2021/11/20 07:24:36;;;;;;;2.75;2.50;;;10.80;99.90;;;;;;5021657;28;20531;-50
2021/11/20 07:27:03;;;;;;;3.08;2.78;;;10.80;99.90;;;;;;5021727;28;20107;-51
2021/11/20 07:29:30;;;;;;;2.90;2.33;;;10.80;99.90;;;;;;5020798;28;20148;-54
2021/11/20 07:31:57;;;;;;;2.40;2.05;;;10.80;99.90;;;;;;5021200;28;20076;-51
2021/11/20 07:34:24;;;;;;;4.07;2.70;;;10.90;99.90;;;;;;5021697;28;20503;-50
2021/11/20 07:36:51;;;;;;;3.25;2.95;;;10.90;99.90;;;;;;5021492;28;20482;-54
2021/11/20 07:39:18;;;;;;;2.88;2.58;;;10.90;99.90;;;;;;5022044;28;20076;-51
2021/11/20 07:41:45;;;;;;;3.50;3.10;;;10.90;99.90;;;;;;5022097;28;20819;-51
2021/11/20 07:44:12;;;;;;;3.78;2.95;;;10.90;99.90;;;;;;5019833;28;20441;-50
2021/11/20 07:46:39;;;;;;;3.30;2.85;;;10.90;99.90;;;;;;5020428;28;20116;-49
2021/11/20 07:49:06;;;;;;;2.78;2.50;;;10.90;99.90;;;;;;5021607;28;20603;-47
2021/11/20 07:51:32;;;;;;;2.90;2.53;;;10.90;99.90;;;;;;5021737;28;20140;-53
2021/11/20 07:53:59;;;;;;;2.92;2.63;;;10.90;99.90;;;;;;5021849;28;20057;-49
2021/11/20 07:56:29;;;;;;;2.50;2.25;;;10.90;99.90;;;;;;5020826;28;20164;-53
2021/11/20 07:58:57;;;;;;;2.95;2.05;;;10.90;99.90;;;;;;5020712;28;20115;-53
2021/11/20 08:01:24;;;;;;;2.95;2.65;;;10.90;99.90;;;;;;5019732;28;20113;-53
2021/11/20 08:03:51;;;;;;;3.05;2.20;;;10.90;99.90;;;;;;5018907;28;20050;-53
2021/11/20 08:06:18;;;;;;;4.50;2.80;;;10.90;99.90;;;;;;5020578;28;20491;-52
2021/11/20 08:08:45;;;;;;;3.45;2.53;;;10.90;99.90;;;;;;5017556;28;20463;-55
2021/11/20 08:11:12;;;;;;;2.83;2.22;;;10.90;99.90;;;;;;5019430;28;20080;-52
2021/11/20 08:13:39;;;;;;;2.30;2.00;;;10.90;99.90;;;;;;5020085;28;20641;-54
2021/11/20 08:16:06;;;;;;;2.38;2.00;;;10.80;99.90;;;;;;5019357;28;20160;-53
2021/11/20 08:18:33;;;;;;;2.72;1.88;;;10.80;99.90;;;;;;5020979;28;20054;-53
2021/11/20 08:21:03;;;;;;;1.67;1.30;;;10.80;99.90;;;;;;5019201;28;20568;-52
2021/11/20 08:23:35;;;;;;;2.55;1.67;;;10.80;99.90;;;;;;5019338;28;20077;-54
2021/11/20 08:26:02;;;;;;;1.45;1.10;;;10.80;99.90;;;;;;5019749;28;20379;-53
2021/11/20 08:28:29;;;;;;;1.65;1.15;;;10.90;99.90;;;;;;5020160;28;20099;-54
2021/11/20 08:30:56;;;;;;;1.83;1.40;;;10.90;99.90;;;;;;5019416;28;20127;-52
2021/11/20 08:33:23;;;;;;;2.83;1.40;;;10.90;99.90;;;;;;5020520;28;20384;-51
2021/11/20 08:35:49;;;;;;;2.05;1.13;;;11.00;99.90;;;;;;5018613;28;20125;-53
2021/11/20 08:38:16;;;;;;;1.52;1.00;;;11.00;99.90;;;;;;5017032;28;20089;-54
2021/11/20 08:40:44;;;;;;;1.70;1.30;;;11.10;99.90;;;;;;5020681;28;20404;-50
2021/11/20 08:43:11;;;;;;;1.77;1.10;;;11.10;99.90;;;;;;5017828;28;20149;-56
2021/11/20 08:45:43;;;;;;;2.10;1.17;;;11.10;99.90;;;;;;5017433;28;20194;-53
2021/11/20 08:48:15;;;;;;;1.63;1.20;;;11.10;99.90;;;;;;5020743;28;20470;-50
2021/11/20 08:50:45;;;;;;;1.60;1.20;;;11.20;99.90;;;;;;5010147;28;20077;-57
2021/11/20 08:53:12;;;;;;;2.45;1.40;;;11.20;99.90;;;;;;5012572;28;20081;-54
2021/11/20 08:55:39;;;;;;;1.90;1.20;;;11.20;99.90;;;;;;5017068;28;20145;-53
2021/11/20 08:58:06;;;;;;;1.08;0.82;;;11.30;99.90;;;;;;5017590;28;20057;-54
2021/11/20 09:00:40;;;;;;;2.97;1.20;;;11.30;99.90;;;;;;5016108;28;20709;-54
2021/11/20 09:03:14;;;;;;;1.38;1.20;;;11.40;99.90;;;;;;5015093;28;20056;-53
2021/11/20 09:06:05;;;;;;;1.17;1.02;;;11.40;99.70;;;;;;5018423;28;20076;-55
2021/11/20 09:08:49;;;;;;;2.30;1.30;;;11.50;99.90;;;;;;5016822;28;20215;-53
2021/11/20 09:11:26;;;;;;;3.13;1.50;;;11.50;99.90;;;;;;5016692;28;20055;-53
2021/11/20 09:14:00;;;;;;;1.83;1.40;;;11.50;99.90;;;;;;5018366;28;20539;-53
2021/11/20 09:16:27;;;;;;;1.27;1.10;;;11.60;99.80;;;;;;5017067;28;20154;-54
2021/11/20 09:18:55;;;;;;;2.08;1.40;;;11.60;99.90;;;;;;5012586;28;20045;-52
2021/11/20 09:21:22;;;;;;;1.45;1.20;;;11.60;99.80;;;;;;5017420;28;20223;-54
2021/11/20 09:23:49;;;;;;;2.15;1.30;;;11.60;99.40;;;;;;5017107;28;20413;-53
2021/11/20 09:26:16;;;;;;;1.10;0.95;;;11.80;99.60;;;;;;5017595;28;20137;-54
2021/11/20 09:28:54;;;;;;;2.25;1.70;;;11.80;99.30;;;;;;5013435;28;20045;-53
2021/11/20 09:31:21;;;;;;;2.63;1.48;;;11.80;99.30;;;;;;5015851;28;20523;-51
2021/11/20 09:33:48;;;;;;;2.85;2.05;;;11.80;99.10;;;;;;5018067;28;20145;-53
2021/11/20 09:36:14;;;;;;;2.03;1.80;;;11.80;99.10;;;;;;5017433;28;20144;-55
2021/11/20 09:38:42;;;;;;;1.75;1.50;;;11.70;99.20;;;;;;5017463;28;20128;-53
2021/11/20 09:41:43;;;;;;;2.22;1.60;;;11.70;98.90;;;;;;5014937;28;20140;-52
2021/11/20 09:44:10;;;;;;;1.77;1.27;;;11.80;99.00;;;;;;4997152;28;20512;-49
2021/11/20 09:46:44;;;;;;;1.60;1.20;;;11.90;99.20;;;;;;5015940;28;20152;-51
2021/11/20 09:49:18;;;;;;;2.03;1.40;;;12.00;98.80;;;;;;5017827;28;20041;-53
2021/11/20 09:51:48;;;;;;;1.70;1.40;;;11.90;98.60;;;;;;4998427;28;20579;-51
2021/11/20 09:54:17;;;;;;;1.40;1.10;;;11.90;98.60;;;;;;5017080;28;20081;-53
2021/11/20 09:56:46;;;;;;;2.15;1.33;;;11.90;98.90;;;;;;5015718;28;20049;-52
2021/11/20 09:59:45;;;;;;;3.33;1.40;;;11.90;98.70;;;;;;5016318;28;20084;-52
2021/11/20 10:02:13;;;;;;;1.98;1.30;;;11.90;98.80;;;;;;5017665;28;20151;-51
2021/11/20 10:04:52;;;;;;;2.35;1.60;;;11.80;98.90;;;;;;5017946;28;20045;-52
2021/11/20 10:07:32;;;;;;;1.73;1.38;;;11.80;99.20;;;;;;5016969;28;20156;-52
2021/11/20 10:10:04;;;;;;;2.03;1.20;;;11.70;99.20;;;;;;5017376;28;20114;-52
2021/11/20 10:12:43;;;;;;;1.25;1.10;;;11.70;99.30;;;;;;5013727;28;20204;-53
2021/11/20 10:15:17;;;;;;;1.88;0.95;;;11.70;99.40;;;;;;5014977;28;20196;-54
2021/11/20 10:17:49;;;;;;;2.35;1.52;;;11.80;99.30;;;;;;5016823;28;20110;-52
2021/11/20 10:20:36;;;;;;;2.63;1.40;;;11.70;99.30;;;;;;5016006;28;20046;-53
2021/11/20 10:23:09;;;;;;;2.05;1.30;;;11.70;99.50;;;;;;5016264;28;20103;-52
2021/11/20 10:25:42;;;;;;;2.00;1.23;;;11.80;99.40;;;;;;5016520;28;20133;-51
2021/11/20 10:28:12;;;;;;;2.88;1.38;;;11.80;99.50;;;;;;5015658;28;20453;-53
2021/11/20 10:31:15;;;;;;;1.85;1.40;;;11.80;99.70;;;;;;5014562;28;20128;-50
2021/11/20 10:33:58;;;;;;;2.23;1.80;;;11.80;99.80;;;;;;5016873;28;20092;-51
2021/11/20 10:36:38;;;;;;;;;;;11.80;99.80;;;;;;5017171;28;20365;-52
2021/11/20 10:39:17;;;;;;;1.95;1.50;;;11.80;99.90;;;;;;5006128;28;19928;-53
2021/11/20 10:41:54;;;;;;;1.52;1.27;;;11.80;99.90;;;;;;5017276;28;20095;-54
2021/11/20 10:44:30;;;;;;;2.08;1.50;;;11.80;99.60;;;;;;5016132;28;20453;-50
2021/11/20 10:47:12;;;;;;;2.17;1.40;;;11.80;99.80;;;;;;5018094;28;20123;-52
2021/11/20 10:49:45;;;;;;;1.45;1.23;;;11.90;99.70;;;;;;5017813;28;20277;-54
2021/11/20 10:52:50;;;;;;;1.83;1.48;;;11.90;99.80;;;;;;5016012;28;20460;-51
2021/11/20 10:55:49;;;;;;;2.25;1.63;;;11.80;99.90;;;;;;5018323;28;20132;-54
2021/11/20 10:58:33;;;;;;;1.90;1.67;;;11.70;99.90;;;;;;5016100;28;20132;-51
2021/11/20 11:01:11;;;;;;;2.30;1.42;;;11.70;99.90;;;;;;5015274;28;20151;-52
2021/11/20 11:03:46;;;;;;;2.00;1.35;;;11.80;99.90;;;;;;5017499;28;20296;-52
2021/11/20 11:06:41;;;;;;;1.50;1.20;;;11.80;99.90;;;;;;5017295;28;20133;-51
2021/11/20 11:09:19;;;;;;;2.33;1.30;;;11.80;99.90;;;;;;5016571;28;20064;-52
2021/11/20 11:12:10;;;;;;;1.77;1.20;;;11.80;99.90;;;;;;5016315;28;20500;-53
2021/11/20 11:14:52;;;;;;;1.65;1.20;;;11.80;99.90;;;;;;5016130;28;20212;-47
2021/11/20 11:17:24;;;;;;;2.05;1.52;;;11.80;99.90;;;;;;5015580;28;20146;-53
2021/11/20 11:20:21;;;;;;;2.42;1.77;;;11.70;99.90;;;;;;5014985;28;20875;-54
2021/11/20 11:23:14;;;;;;;1.35;1.10;;;11.60;99.90;;;;;;5015654;28;20144;-52
2021/11/20 11:26:05;;;;;;;1.70;1.45;;;11.50;99.90;;;;;;5007467;28;20129;-52
2021/11/20 11:28:55;;;;;;;2.13;1.48;;;11.50;99.90;;;;;;5015531;28;20084;-52
2021/11/20 11:31:25;;;;;;;2.97;1.80;;;11.40;99.90;;;;;;5015399;28;20317;-48
2021/11/20 11:34:24;;;;;;;2.38;1.35;;;11.40;99.90;;;;;;5017132;28;20490;-50
2021/11/20 11:37:10;;;;;;;2.10;1.30;;;11.40;99.90;;;;;;5015827;28;20057;-52
2021/11/20 11:39:51;;;;;;;2.97;1.50;;;11.40;99.90;;;;;;5016665;28;20465;-51
2021/11/20 11:42:34;;;;;;;1.70;1.50;;;11.40;99.90;;;;;;5016287;28;20572;-52
2021/11/20 11:45:37;;;;;;;1.90;1.63;;;11.40;99.90;;;;;;4999267;28;20111;-51
2021/11/20 11:48:55;;;;;;;2.70;1.73;;;11.40;99.90;;;;;;5016994;28;20049;-51
2021/11/20 11:51:37;;;;;;;2.08;1.70;;;11.30;99.90;;;;;;4991361;28;20364;-49
2021/11/20 11:54:31;;;;;;;1.80;1.63;;;11.30;99.90;;;;;;5015875;28;20479;-50
2021/11/20 11:56:58;;;;;;;2.22;1.60;;;11.30;99.90;;;;;;5016483;28;20218;-53
2021/11/20 11:59:56;;;;;;;2.40;1.80;;;11.40;99.90;;;;;;5017489;28;20089;-52
2021/11/20 12:02:26;;;;;;;3.20;2.40;;;11.40;99.90;;;;;;5020297;28;20218;-51
2021/11/20 12:04:59;;;;;;;3.60;2.30;;;11.40;99.90;;;;;;5020420;28;20121;-53
2021/11/20 12:07:45;;;;;;;;;;;11.40;99.90;;;;;;5019163;28;20121;-52
2021/11/20 12:10:12;;;;;;;2.75;2.35;;;11.40;99.90;;;;;;5017800;28;19931;-53
2021/11/20 12:12:51;;;;;;;2.80;2.03;;;11.40;99.90;;;;;;5018365;28;20133;-52
2021/11/20 12:15:17;;;;;;;2.20;2.00;;;11.40;99.90;;;;;;5013048;28;20628;-54
2021/11/20 12:18:22;;;;;;;2.70;2.22;;;11.50;99.90;;;;;;5018061;28;20088;-54
2021/11/20 12:21:18;;;;;;;2.55;2.03;;;11.60;99.90;;;;;;5018585;28;20143;-52
2021/11/20 12:23:59;;;;;;;2.80;2.00;;;11.60;99.90;;;;;;5020034;28;20546;-53
2021/11/20 12:26:36;;;;;;;2.38;1.80;;;11.70;99.90;;;;;;5020282;28;20136;-54
2021/11/20 12:29:37;;;;;;;2.20;2.00;;;11.70;99.90;;;;;;5018002;28;20080;-50
2021/11/20 12:32:33;;;;;;;2.22;1.38;;;11.70;99.90;;;;;;5015214;28;20053;-49
2021/11/20 12:35:11;;;;;;;1.98;1.40;;;11.70;99.90;;;;;;5018524;28;20535;-53
2021/11/20 12:37:56;;;;;;;2.58;1.80;;;11.70;99.90;;;;;;5015502;28;20138;-52
2021/11/20 12:41:08;;;;;;;2.10;1.70;;;11.70;99.70;;;;;;5019310;28;20068;-53
2021/11/20 12:43:56;;;;;;;2.55;2.22;;;11.60;99.90;;;;;;5013108;28;20446;-54
2021/11/20 12:47:00;;;;;;;2.85;2.17;;;11.50;99.90;;;;;;5018797;28;20109;-55
2021/11/20 12:49:27;;;;;;;3.38;2.40;;;11.50;99.90;;;;;;5020475;28;20133;-52
2021/11/20 12:52:01;;;;;;;3.28;2.50;;;11.40;99.90;;;;;;5020279;28;20091;-52
2021/11/20 12:54:43;;;;;;;3.00;2.63;;;11.40;99.90;;;;;;5018436;28;20140;-52
2021/11/20 12:57:21;;;;;;;2.83;1.98;;;11.40;99.90;;;;;;5018319;28;20358;-54
2021/11/20 12:59:50;;;;;;;2.85;2.22;;;11.40;99.90;;;;;;5015994;28;20085;-53
2021/11/20 13:02:45;;;;;;;2.50;1.85;;;11.30;99.90;;;;;;5012881;28;20048;-50
2021/11/20 13:05:26;;;;;;;2.53;1.88;;;11.30;99.90;;;;;;5019637;28;20045;-52
2021/11/20 13:08:02;;;;;;;2.35;1.83;;;11.30;99.90;;;;;;5017987;28;20052;-51
2021/11/20 13:10:54;;;;;;;2.85;1.80;;;11.30;99.90;;;;;;5016060;28;20057;-52
2021/11/20 13:13:43;;;;;;;3.28;2.08;;;11.30;99.90;;;;;;5013962;28;20455;-52